Time,TemperatureF,DewpointF,PressureIn,WindDirection,WindDirectionDegrees,WindSpeedMPH,WindSpeedGustMPH,Humidity,HourlyPrecipIn,Conditions,Clouds,dailyrainin,SoftwareType,DateUTC
2013-05-30 00:04:00,74.8,67.5,29.71,ENE,68,4.3,5.4,78,0.00,,---,2.39,VWS V13.01,2013-05-30 04:04:00,
2013-05-30 00:09:00,75.4,68.4,29.71,ESE,112,8.1,8.1,79,0.00,,---,2.39,VWS V13.01,2013-05-30 04:09:00,
2013-05-30 00:19:00,75.6,68.6,29.70,ENE,68,2.7,2.7,79,0.00,,---,2.39,VWS V13.01,2013-05-30 04:19:00,
2013-05-30 00:24:00,76.3,69.3,29.70,East,90,21.9,21.9,79,0.00,,---,2.39,VWS V13.01,2013-05-30 04:24:00,
2013-05-30 00:34:00,76.3,69.3,29.70,ESE,112,15.9,15.9,79,0.02,,---,2.41,VWS V13.01,2013-05-30 04:34:00,
2013-05-30 00:39:00,76.1,68.4,29.71,NE,45,13.0,15.9,77,0.02,,---,2.41,VWS V13.01,2013-05-30 04:39:00,
2013-05-30 00:44:00,75.0,66.6,29.71,ENE,68,10.5,13.0,75,0.02,,---,2.41,VWS V13.01,2013-05-30 04:44:00,
2013-05-30 00:54:00,74.5,65.7,29.71,ENE,68,7.8,7.8,74,0.02,,---,2.41,VWS V13.01,2013-05-30 04:54:00,
2013-05-30 00:59:00,74.7,66.6,29.70,SE,135,3.1,7.8,76,0.02,,---,2.41,VWS V13.01,2013-05-30 04:59:00,
2013-05-30 01:04:00,74.7,66.6,29.70,SE,135,3.1,7.8,76,0.02,,---,2.41,VWS V13.01,2013-05-30 05:04:00,
2013-05-30 01:09:00,74.7,66.6,29.70,SE,135,3.1,7.8,76,0.02,,---,2.41,VWS V13.01,2013-05-30 05:09:00,
2013-05-30 01:14:00,74.7,66.6,29.70,SE,135,3.1,7.8,76,0.02,,---,2.41,VWS V13.01,2013-05-30 05:14:00,
2013-05-30 01:19:00,74.7,66.6,29.70,NE,45,5.6,5.6,76,0.02,,---,2.41,VWS V13.01,2013-05-30 05:19:00,
2013-05-30 01:29:00,76.3,68.9,29.69,East,90,12.3,12.3,78,0.02,,---,2.41,VWS V13.01,2013-05-30 05:29:00,
2013-05-30 01:39:00,76.6,69.3,29.69,ESE,112,9.4,14.1,78,0.02,,---,2.41,VWS V13.01,2013-05-30 05:39:00,
2013-05-30 01:49:00,76.8,68.7,29.69,ESE,112,6.7,19.9,76,0.00,,---,2.41,VWS V13.01,2013-05-30 05:49:00,
2013-05-30 01:59:00,76.1,68.0,29.69,ESE,112,7.6,9.0,76,0.00,,---,2.41,VWS V13.01,2013-05-30 05:59:00,
2013-05-30 02:09:00,76.3,68.6,29.68,East,90,15.4,15.4,77,0.00,,---,2.41,VWS V13.01,2013-05-30 06:09:00,
2013-05-30 02:19:00,76.6,68.9,29.68,ESE,112,15.7,15.7,77,0.00,,---,2.41,VWS V13.01,2013-05-30 06:19:00,
2013-05-30 02:29:00,77.0,68.9,29.68,ESE,112,10.7,10.7,76,0.00,,---,2.41,VWS V13.01,2013-05-30 06:29:00,
2013-05-30 02:39:00,77.2,68.7,29.68,SE,135,8.1,16.3,75,0.00,,---,2.41,VWS V13.01,2013-05-30 06:39:00,
2013-05-30 02:44:00,77.2,68.7,29.68,ESE,112,15.0,15.0,75,0.00,,---,2.41,VWS V13.01,2013-05-30 06:44:00,
2013-05-30 02:54:00,77.2,68.3,29.67,ESE,112,15.0,15.0,74,0.00,,---,2.41,VWS V13.01,2013-05-30 06:54:00,
2013-05-30 02:59:00,77.2,68.3,29.67,ENE,68,20.4,20.4,74,0.00,,---,2.41,VWS V13.01,2013-05-30 06:59:00,
2013-05-30 03:09:00,77.2,68.3,29.67,East,90,9.6,20.4,74,0.00,,---,2.30,VWS V13.01,2013-05-30 07:09:00,
2013-05-30 03:19:00,77.2,68.3,29.66,ESE,112,6.0,12.3,74,0.00,,---,2.30,VWS V13.01,2013-05-30 07:19:00,
2013-05-30 03:29:00,77.2,68.7,29.66,SE,135,5.8,5.8,75,0.00,,---,2.30,VWS V13.01,2013-05-30 07:29:00,
2013-05-30 03:39:00,77.2,68.7,29.66,ESE,112,7.8,7.8,75,0.00,,---,2.30,VWS V13.01,2013-05-30 07:39:00,
2013-05-30 03:49:00,77.2,68.3,29.66,ESE,112,11.2,11.2,74,0.00,,---,2.30,VWS V13.01,2013-05-30 07:49:00,
2013-05-30 03:54:00,77.2,68.7,29.66,SE,135,14.5,14.5,75,0.00,,---,2.30,VWS V13.01,2013-05-30 07:54:00,
2013-05-30 04:04:00,77.2,68.7,29.66,East,90,10.7,10.7,75,0.00,,---,1.96,VWS V13.01,2013-05-30 08:04:00,
2013-05-30 04:09:00,76.8,67.9,29.66,ESE,112,7.6,12.1,74,0.00,,---,1.96,VWS V13.01,2013-05-30 08:09:00,
2013-05-30 04:19:00,76.8,67.9,29.66,ESE,112,6.5,6.9,74,0.00,,---,1.96,VWS V13.01,2013-05-30 08:19:00,
2013-05-30 04:24:00,76.8,67.9,29.66,ESE,112,10.7,10.7,74,0.00,,---,1.96,VWS V13.01,2013-05-30 08:24:00,
2013-05-30 04:34:00,76.8,67.9,29.67,ESE,112,5.8,5.8,74,0.00,,---,1.96,VWS V13.01,2013-05-30 08:34:00,
2013-05-30 04:39:00,76.8,67.9,29.67,SSE,158,3.8,9.6,74,0.00,,---,1.96,VWS V13.01,2013-05-30 08:39:00,
2013-05-30 04:49:00,76.8,67.5,29.66,ENE,68,7.8,13.4,73,0.00,,---,1.96,VWS V13.01,2013-05-30 08:49:00,
2013-05-30 04:59:00,77.0,68.1,29.67,SSE,158,5.6,12.3,74,0.00,,---,1.96,VWS V13.01,2013-05-30 08:59:00,
2013-05-30 05:04:00,77.0,68.1,29.67,ESE,112,8.1,8.1,74,0.00,,---,1.37,VWS V13.01,2013-05-30 09:04:00,
2013-05-30 05:14:00,76.8,67.5,29.67,ESE,112,9.4,12.3,73,0.00,,---,1.37,VWS V13.01,2013-05-30 09:14:00,
2013-05-30 05:24:00,76.8,67.5,29.66,ESE,112,9.2,9.2,73,0.00,,---,1.37,VWS V13.01,2013-05-30 09:24:00,
2013-05-30 05:29:00,76.8,67.9,29.66,East,90,7.8,9.2,74,0.00,,---,1.37,VWS V13.01,2013-05-30 09:29:00,
2013-05-30 05:34:00,76.8,67.9,29.67,ESE,112,6.5,7.8,74,0.00,,---,1.37,VWS V13.01,2013-05-30 09:34:00,
2013-05-30 05:44:00,76.8,67.9,29.68,ESE,112,5.8,11.0,74,0.00,,---,1.37,VWS V13.01,2013-05-30 09:44:00,
2013-05-30 05:54:00,77.0,68.1,29.67,East,90,12.1,12.1,74,0.00,,---,1.37,VWS V13.01,2013-05-30 09:54:00,
2013-05-30 05:59:00,77.0,68.5,29.67,East,90,8.1,12.1,75,0.00,,---,1.37,VWS V13.01,2013-05-30 09:59:00,
2013-05-30 06:09:00,77.2,68.7,29.68,SE,135,6.9,8.1,75,0.00,,---,1.12,VWS V13.01,2013-05-30 10:09:00,
2013-05-30 06:19:00,77.2,68.7,29.67,ENE,68,7.4,10.5,75,0.00,,---,1.12,VWS V13.01,2013-05-30 10:19:00,
2013-05-30 06:24:00,77.2,68.7,29.68,SE,135,3.6,18.1,75,0.00,,---,1.12,VWS V13.01,2013-05-30 10:24:00,
2013-05-30 06:34:00,77.5,69.0,29.68,East,90,12.8,12.8,75,0.00,,---,1.12,VWS V13.01,2013-05-30 10:34:00,
2013-05-30 06:44:00,77.5,69.0,29.68,ESE,112,5.6,5.6,75,0.00,,---,1.12,VWS V13.01,2013-05-30 10:44:00,
2013-05-30 06:54:00,77.7,69.2,29.68,East,90,5.4,7.6,75,0.00,,---,1.12,VWS V13.01,2013-05-30 10:54:00,
2013-05-30 06:59:00,77.5,69.4,29.68,ENE,68,7.6,7.6,76,0.00,,---,1.12,VWS V13.01,2013-05-30 10:59:00,
2013-05-30 07:09:00,77.5,69.0,29.68,NE,45,9.2,10.1,75,0.00,,---,0.51,VWS V13.01,2013-05-30 11:09:00,
2013-05-30 07:14:00,77.5,69.0,29.68,East,90,8.5,9.2,75,0.00,,---,0.51,VWS V13.01,2013-05-30 11:14:00,
2013-05-30 07:24:00,77.7,69.2,29.68,ESE,112,15.2,15.2,75,0.00,,---,0.51,VWS V13.01,2013-05-30 11:24:00,
2013-05-30 07:34:00,77.9,69.3,29.68,ESE,112,8.1,11.2,75,0.00,,---,0.51,VWS V13.01,2013-05-30 11:34:00,
2013-05-30 07:44:00,78.6,70.0,29.68,SSE,158,9.4,13.4,75,0.00,,---,0.51,VWS V13.01,2013-05-30 11:44:00,
2013-05-30 07:54:00,79.0,70.0,29.68,ESE,112,12.3,12.3,74,0.00,,---,0.51,VWS V13.01,2013-05-30 11:54:00,
2013-05-30 08:04:00,79.2,70.2,29.69,ESE,112,13.6,14.3,74,0.00,,---,0.41,VWS V13.01,2013-05-30 12:04:00,
2013-05-30 08:14:00,79.2,69.8,29.70,East,90,7.8,13.0,73,0.00,,---,0.41,VWS V13.01,2013-05-30 12:14:00,
2013-05-30 08:19:00,79.3,69.5,29.70,ESE,112,9.8,12.8,72,0.00,,---,0.41,VWS V13.01,2013-05-30 12:19:00,
2013-05-30 08:29:00,79.7,69.9,29.70,ESE,112,4.3,15.2,72,0.00,,---,0.41,VWS V13.01,2013-05-30 12:29:00,
2013-05-30 08:39:00,80.2,70.4,29.70,East,90,8.3,8.3,72,0.00,,---,0.41,VWS V13.01,2013-05-30 12:39:00,
2013-05-30 08:49:00,79.3,69.9,29.71,SSW,202,7.8,12.3,73,0.00,,---,0.41,VWS V13.01,2013-05-30 12:49:00,
2013-05-30 08:59:00,78.4,69.9,29.71,ESE,112,9.0,13.0,75,0.00,,---,0.41,VWS V13.01,2013-05-30 12:59:00,
2013-05-30 09:09:00,77.7,69.2,29.71,ENE,68,16.3,19.2,75,0.00,,---,0.31,VWS V13.01,2013-05-30 13:09:00,
2013-05-30 09:14:00,77.7,69.2,29.71,ENE,68,16.3,16.3,75,0.00,,---,0.31,VWS V13.01,2013-05-30 13:14:00,
2013-05-30 09:19:00,77.5,68.6,29.71,ESE,112,5.6,16.3,74,0.00,,---,0.31,VWS V13.01,2013-05-30 13:19:00,
2013-05-30 09:29:00,77.5,68.6,29.71,ESE,112,13.0,16.1,74,0.00,,---,0.31,VWS V13.01,2013-05-30 13:29:00,
2013-05-30 09:39:00,77.4,68.4,29.71,ESE,112,8.7,8.7,74,0.00,,---,0.31,VWS V13.01,2013-05-30 13:39:00,
2013-05-30 09:44:00,77.5,68.6,29.71,NE,45,6.9,8.7,74,0.00,,---,0.31,VWS V13.01,2013-05-30 13:44:00,
2013-05-30 09:54:00,77.7,68.4,29.71,ESE,112,14.1,14.1,73,0.00,,---,0.31,VWS V13.01,2013-05-30 13:54:00,
2013-05-30 10:04:00,78.4,69.1,29.71,ESE,112,9.8,9.8,73,0.00,,---,0.26,VWS V13.01,2013-05-30 14:04:00,
2013-05-30 10:14:00,78.6,69.7,29.71,ENE,68,14.3,14.3,74,0.00,,---,0.26,VWS V13.01,2013-05-30 14:14:00,
2013-05-30 10:24:00,79.3,69.9,29.71,NE,45,7.4,7.8,73,0.00,,---,0.26,VWS V13.01,2013-05-30 14:24:00,
2013-05-30 10:29:00,79.5,70.1,29.71,ESE,112,11.9,11.9,73,0.00,,---,0.26,VWS V13.01,2013-05-30 14:29:00,
2013-05-30 10:39:00,79.9,70.5,29.71,SE,135,6.7,7.4,73,0.00,,---,0.26,VWS V13.01,2013-05-30 14:39:00,
2013-05-30 10:44:00,80.1,70.2,29.71,ESE,112,9.6,9.6,72,0.00,,---,0.26,VWS V13.01,2013-05-30 14:44:00,
2013-05-30 10:54:00,80.4,69.8,29.72,ESE,112,9.2,22.2,70,0.00,,---,0.26,VWS V13.01,2013-05-30 14:54:00,
2013-05-30 10:59:00,80.6,70.3,29.72,ESE,112,11.0,11.0,71,0.00,,---,0.26,VWS V13.01,2013-05-30 14:59:00,
2013-05-30 11:09:00,81.1,70.8,29.71,ENE,68,6.9,7.6,71,0.00,,---,0.22,VWS V13.01,2013-05-30 15:09:00,
2013-05-30 11:14:00,81.3,70.6,29.71,ESE,112,13.2,13.2,70,0.00,,---,0.22,VWS V13.01,2013-05-30 15:14:00,
2013-05-30 11:24:00,81.5,71.2,29.72,SE,135,11.2,11.2,71,0.00,,---,0.22,VWS V13.01,2013-05-30 15:24:00,
2013-05-30 11:29:00,81.3,71.0,29.71,SE,135,11.2,11.2,71,0.00,,---,0.22,VWS V13.01,2013-05-30 15:29:00,
2013-05-30 11:39:00,81.3,71.4,29.72,ENE,68,6.7,7.2,72,0.00,,---,0.22,VWS V13.01,2013-05-30 15:39:00,
2013-05-30 11:49:00,82.0,71.7,29.72,East,90,16.8,16.8,71,0.00,,---,0.22,VWS V13.01,2013-05-30 15:49:00,
2013-05-30 11:59:00,83.1,71.9,29.72,ESE,112,1.8,16.8,69,0.00,,---,0.22,VWS V13.01,2013-05-30 15:59:00,
2013-05-30 12:09:00,82.8,71.6,29.72,East,90,7.6,14.5,69,0.00,,---,0.22,VWS V13.01,2013-05-30 16:09:00,
2013-05-30 12:19:00,82.0,71.7,29.71,East,90,8.1,14.1,71,0.00,,---,0.22,VWS V13.01,2013-05-30 16:19:00,
2013-05-30 12:29:00,79.9,70.5,29.71,ENE,68,6.7,13.2,73,0.00,,---,0.22,VWS V13.01,2013-05-30 16:29:00,
2013-05-30 12:39:00,79.3,71.1,29.71,ENE,68,14.3,14.3,76,0.00,,---,0.22,VWS V13.01,2013-05-30 16:39:00,
2013-05-30 12:49:00,80.2,71.2,29.70,ENE,68,8.3,9.0,74,0.00,,---,0.22,VWS V13.01,2013-05-30 16:49:00,
2013-05-30 12:59:00,80.2,70.4,29.70,East,90,16.1,16.1,72,0.00,,---,0.22,VWS V13.01,2013-05-30 16:59:00,
2013-05-30 13:04:00,80.4,70.6,29.70,ENE,68,7.6,16.1,72,0.00,,---,0.20,VWS V13.01,2013-05-30 17:04:00,
2013-05-30 13:14:00,80.4,70.6,29.70,ESE,112,14.5,14.5,72,0.00,,---,0.20,VWS V13.01,2013-05-30 17:14:00,
2013-05-30 13:19:00,79.5,70.1,29.70,SE,135,21.0,21.0,73,0.00,,---,0.20,VWS V13.01,2013-05-30 17:19:00,
2013-05-30 13:29:00,80.2,70.4,29.70,ESE,112,9.2,11.0,72,0.00,,---,0.20,VWS V13.01,2013-05-30 17:29:00,
2013-05-30 13:39:00,80.4,70.2,29.70,ESE,112,6.9,15.2,71,0.00,,---,0.20,VWS V13.01,2013-05-30 17:39:00,
2013-05-30 13:49:00,81.0,71.1,29.70,ESE,112,18.6,18.6,72,0.00,,---,0.20,VWS V13.01,2013-05-30 17:49:00,
2013-05-30 13:54:00,80.8,70.9,29.70,ESE,112,14.3,18.6,72,0.00,,---,0.20,VWS V13.01,2013-05-30 17:54:00,
2013-05-30 13:59:00,80.4,70.6,29.70,ENE,68,9.6,14.3,72,0.00,,---,0.20,VWS V13.01,2013-05-30 17:59:00,
2013-05-30 14:09:00,80.2,71.2,29.70,SE,135,5.6,7.6,74,0.00,,---,0.20,VWS V13.01,2013-05-30 18:09:00,
2013-05-30 14:14:00,79.7,70.7,29.70,East,90,7.4,7.4,74,0.00,,---,0.20,VWS V13.01,2013-05-30 18:14:00,
2013-05-30 14:19:00,79.7,70.7,29.70,East,90,7.4,7.4,74,0.00,,---,0.20,VWS V13.01,2013-05-30 18:19:00,
2013-05-30 14:29:00,79.3,71.1,29.69,ESE,112,11.0,11.0,76,0.00,,---,0.20,VWS V13.01,2013-05-30 18:29:00,
2013-05-30 14:39:00,79.7,70.7,29.69,NNE,22,2.9,2.9,74,0.00,,---,0.20,VWS V13.01,2013-05-30 18:39:00,
2013-05-30 14:49:00,80.2,71.2,29.68,SE,135,12.8,12.8,74,0.02,,---,0.22,VWS V13.01,2013-05-30 18:49:00,
2013-05-30 14:54:00,81.5,70.8,29.68,East,90,12.3,12.8,70,0.02,,---,0.22,VWS V13.01,2013-05-30 18:54:00,
2013-05-30 14:59:00,82.2,70.6,29.68,SE,135,4.9,12.3,68,0.02,,---,0.22,VWS V13.01,2013-05-30 18:59:00,
2013-05-30 15:09:00,82.2,71.0,29.68,ENE,68,0.0,8.3,69,0.02,,---,0.22,VWS V13.01,2013-05-30 19:09:00,
2013-05-30 15:19:00,82.0,70.9,29.68,WSW,248,6.9,11.4,69,0.02,,---,0.22,VWS V13.01,2013-05-30 19:19:00,
2013-05-30 15:24:00,82.6,71.4,29.68,ENE,68,15.2,15.2,69,0.02,,---,0.22,VWS V13.01,2013-05-30 19:24:00,
2013-05-30 15:34:00,82.0,71.3,29.68,ENE,68,12.5,15.0,70,0.02,,---,0.22,VWS V13.01,2013-05-30 19:34:00,
2013-05-30 15:39:00,80.1,69.8,29.68,SE,135,18.6,18.6,71,0.02,,---,0.22,VWS V13.01,2013-05-30 19:39:00,
2013-05-30 15:49:00,79.7,69.9,29.67,ESE,112,11.2,14.8,72,0.00,,---,0.22,VWS V13.01,2013-05-30 19:49:00,
2013-05-30 15:59:00,79.9,70.1,29.67,SSE,158,7.4,11.2,72,0.00,,---,0.22,VWS V13.01,2013-05-30 19:59:00,
2013-05-30 16:04:00,80.2,70.0,29.67,ESE,112,6.5,16.8,71,0.00,,---,0.22,VWS V13.01,2013-05-30 20:04:00,
2013-05-30 16:14:00,80.2,70.4,29.66,ESE,112,12.1,12.1,72,0.00,,---,0.22,VWS V13.01,2013-05-30 20:14:00,
2013-05-30 16:19:00,80.8,70.5,29.66,WSW,248,5.8,12.1,71,0.00,,---,0.22,VWS V13.01,2013-05-30 20:19:00,
2013-05-30 16:29:00,81.3,69.3,29.66,WSW,248,9.6,17.5,67,0.00,,---,0.22,VWS V13.01,2013-05-30 20:29:00,
2013-05-30 16:34:00,81.3,69.3,29.65,WSW,248,9.6,9.6,67,0.00,,---,0.22,VWS V13.01,2013-05-30 20:34:00,
2013-05-30 16:44:00,81.5,69.1,29.65,WSW,248,3.8,15.0,66,0.00,,---,0.22,VWS V13.01,2013-05-30 20:44:00,
2013-05-30 16:49:00,81.5,69.5,29.65,WSW,248,3.1,9.0,67,0.00,,---,0.22,VWS V13.01,2013-05-30 20:49:00,
2013-05-30 16:59:00,81.7,69.7,29.65,WSW,248,7.6,7.6,67,0.00,,---,0.22,VWS V13.01,2013-05-30 20:59:00,
2013-05-30 17:04:00,81.7,69.7,29.65,East,90,13.6,13.6,67,0.00,,---,0.22,VWS V13.01,2013-05-30 21:04:00,
2013-05-30 17:14:00,82.0,70.4,29.65,WSW,248,3.4,8.5,68,0.00,,---,0.22,VWS V13.01,2013-05-30 21:14:00,
2013-05-30 17:24:00,82.0,70.4,29.65,WSW,248,6.3,6.3,68,0.00,,---,0.22,VWS V13.01,2013-05-30 21:24:00,
2013-05-30 17:29:00,82.0,70.0,29.65,ESE,112,14.8,14.8,67,0.00,,---,0.22,VWS V13.01,2013-05-30 21:29:00,
2013-05-30 17:39:00,81.0,69.4,29.65,SE,135,15.4,18.6,68,0.00,,---,0.22,VWS V13.01,2013-05-30 21:39:00,
2013-05-30 17:44:00,81.0,69.4,29.65,ENE,68,16.6,16.6,68,0.00,,---,0.22,VWS V13.01,2013-05-30 21:44:00,
2013-05-30 17:54:00,80.4,70.6,29.65,East,90,9.4,11.4,72,0.00,,---,0.22,VWS V13.01,2013-05-30 21:54:00,
2013-05-30 17:59:00,80.4,70.6,29.66,East,90,9.4,9.4,72,0.00,,---,0.22,VWS V13.01,2013-05-30 21:59:00,
2013-05-30 18:04:00,79.0,69.6,29.65,ESE,112,4.5,9.4,73,0.00,,---,0.22,VWS V13.01,2013-05-30 22:04:00,
2013-05-30 18:14:00,78.4,69.1,29.65,East,90,12.3,15.0,73,0.00,,---,0.22,VWS V13.01,2013-05-30 22:14:00,
2013-05-30 18:24:00,78.6,69.7,29.65,East,90,13.2,13.2,74,0.00,,---,0.22,VWS V13.01,2013-05-30 22:24:00,
2013-05-30 18:34:00,78.6,69.2,29.65,East,90,5.6,5.6,73,0.02,,---,0.24,VWS V13.01,2013-05-30 22:34:00,
2013-05-30 18:39:00,79.0,69.2,29.65,East,90,13.2,13.2,72,0.02,,---,0.24,VWS V13.01,2013-05-30 22:39:00,
2013-05-30 18:49:00,78.6,68.8,29.66,ESE,112,9.6,19.5,72,0.02,,---,0.24,VWS V13.01,2013-05-30 22:49:00,
2013-05-30 18:54:00,78.1,69.5,29.66,ESE,112,4.7,9.6,75,0.02,,---,0.24,VWS V13.01,2013-05-30 22:54:00,
2013-05-30 19:04:00,77.9,69.3,29.66,ESE,112,6.0,18.8,75,0.02,,---,0.24,VWS V13.01,2013-05-30 23:04:00,
2013-05-30 19:14:00,78.1,68.7,29.66,SE,135,11.4,11.4,73,0.02,,---,0.24,VWS V13.01,2013-05-30 23:14:00,
2013-05-30 19:19:00,78.1,68.7,29.66,ESE,112,12.3,12.3,73,0.02,,---,0.24,VWS V13.01,2013-05-30 23:19:00,
2013-05-30 19:29:00,78.1,68.7,29.67,ENE,68,8.5,10.3,73,0.00,,---,0.24,VWS V13.01,2013-05-30 23:29:00,
2013-05-30 19:34:00,78.3,68.9,29.67,ESE,112,14.8,14.8,73,0.00,,---,0.24,VWS V13.01,2013-05-30 23:34:00,
2013-05-30 19:44:00,78.4,69.9,29.68,ENE,68,6.9,14.8,75,0.00,,---,0.24,VWS V13.01,2013-05-30 23:44:00,
2013-05-30 19:54:00,77.2,69.0,29.68,ENE,68,0.4,8.1,76,0.04,,---,0.29,VWS V13.01,2013-05-30 23:54:00,
2013-05-30 19:59:00,77.2,69.0,29.68,East,90,5.6,5.6,76,0.04,,---,0.29,VWS V13.01,2013-05-30 23:59:00,
2013-05-30 20:09:00,77.0,68.5,29.68,ESE,112,9.2,9.8,75,0.04,,---,0.12,VWS V13.01,2013-05-31 00:09:00,
2013-05-30 20:19:00,77.2,68.7,29.68,East,90,19.2,19.2,75,0.04,,---,0.12,VWS V13.01,2013-05-31 00:19:00,
2013-05-30 20:24:00,77.2,68.3,29.68,ENE,68,4.0,19.2,74,0.04,,---,0.12,VWS V13.01,2013-05-31 00:24:00,
2013-05-30 20:34:00,77.2,68.3,29.68,ESE,112,13.9,13.9,74,0.04,,---,0.12,VWS V13.01,2013-05-31 00:34:00,
2013-05-30 20:39:00,77.2,68.3,29.69,ESE,112,13.9,13.9,74,0.04,,---,0.12,VWS V13.01,2013-05-31 00:39:00,
2013-05-30 20:44:00,77.4,68.0,29.68,ENE,68,5.6,13.9,73,0.04,,---,0.12,VWS V13.01,2013-05-31 00:44:00,
2013-05-30 20:54:00,77.4,67.6,29.69,East,90,15.2,15.2,72,0.00,,---,0.12,VWS V13.01,2013-05-31 00:54:00,
2013-05-30 20:59:00,77.4,67.6,29.68,ENE,68,6.0,15.2,72,0.00,,---,0.12,VWS V13.01,2013-05-31 00:59:00,
2013-05-30 21:09:00,77.2,67.5,29.69,East,90,9.0,15.2,72,0.00,,---,0.10,VWS V13.01,2013-05-31 01:09:00,
2013-05-30 21:14:00,77.4,67.6,29.69,SE,135,15.2,15.2,72,0.00,,---,0.10,VWS V13.01,2013-05-31 01:14:00,
2013-05-30 21:24:00,77.4,68.0,29.70,East,90,2.5,13.0,73,0.00,,---,0.10,VWS V13.01,2013-05-31 01:24:00,
2013-05-30 21:34:00,77.5,68.6,29.70,NNE,22,5.8,6.3,74,0.02,,---,0.12,VWS V13.01,2013-05-31 01:34:00,
2013-05-30 21:44:00,77.5,68.6,29.71,ESE,112,3.4,6.9,74,0.02,,---,0.12,VWS V13.01,2013-05-31 01:44:00,
2013-05-30 21:54:00,77.5,68.6,29.71,East,90,11.6,11.6,74,0.02,,---,0.12,VWS V13.01,2013-05-31 01:54:00,
2013-05-30 22:04:00,77.5,68.6,29.71,ESE,112,7.6,11.6,74,0.02,,---,0.12,VWS V13.01,2013-05-31 02:04:00,
2013-05-30 22:14:00,77.5,68.6,29.71,ESE,112,6.5,6.5,74,0.02,,---,0.12,VWS V13.01,2013-05-31 02:14:00,
2013-05-30 22:24:00,76.8,67.9,29.71,SE,135,4.0,6.9,74,0.00,,---,0.12,VWS V13.01,2013-05-31 02:24:00,
2013-05-30 22:34:00,77.2,68.7,29.71,ESE,112,19.5,19.5,75,0.00,,---,0.12,VWS V13.01,2013-05-31 02:34:00,
2013-05-30 22:39:00,77.2,68.3,29.71,ENE,68,7.8,19.5,74,0.00,,---,0.12,VWS V13.01,2013-05-31 02:39:00,
2013-05-30 22:49:00,77.4,68.8,29.71,ESE,112,11.9,11.9,75,0.00,,---,0.12,VWS V13.01,2013-05-31 02:49:00,
2013-05-30 22:59:00,77.5,69.0,29.71,ESE,112,6.5,12.3,75,0.00,,---,0.12,VWS V13.01,2013-05-31 02:59:00,
2013-05-30 23:04:00,77.5,69.0,29.71,ESE,112,6.7,8.1,75,0.00,,---,0.12,VWS V13.01,2013-05-31 03:04:00,
2013-05-30 23:14:00,77.5,69.0,29.71,ESE,112,7.2,14.1,75,0.00,,---,0.12,VWS V13.01,2013-05-31 03:14:00,
2013-05-30 23:24:00,77.7,69.2,29.71,ESE,112,10.1,10.1,75,0.00,,---,0.12,VWS V13.01,2013-05-31 03:24:00,
2013-05-30 23:34:00,77.5,69.0,29.71,SE,135,7.4,7.4,75,0.00,,---,0.12,VWS V13.01,2013-05-31 03:34:00,
2013-05-30 23:44:00,77.7,69.2,29.71,East,90,8.7,8.7,75,0.00,,---,0.12,VWS V13.01,2013-05-31 03:44:00,
2013-05-30 23:54:00,77.7,69.6,29.71,East,90,8.7,8.7,76,0.00,,---,0.12,VWS V13.01,2013-05-31 03:54:00,